sensor_id;sensor_type;location;lat;lon;timestamp;temperature;humidity
6008;DHT22;3032;49.484;11.112;2024-01-11T00:00:40;-2.60;99.90
6008;DHT22;3032;49.484;11.112;2024-01-11T00:03:05;-2.70;99.90
6008;DHT22;3032;49.484;11.112;2024-01-11T00:05:31;-2.70;99.90
6008;DHT22;3032;49.484;11.112;2024-01-11T00:07:56;-2.60;99.90
6008;DHT22;3032;49.484;11.112;2024-01-11T00:10:22;-2.50;99.90
6008;DHT22;3032;49.484;11.112;2024-01-11T00:12:48;-2.40;99.90
6008;DHT22;3032;49.484;11.112;2024-01-11T00:15:14;-2.40;99.90
6008;DHT22;3032;49.484;11.112;2024-01-11T00:17:39;-2.40;99.90
6008;DHT22;3032;49.484;11.112;2024-01-11T00:20:05;-2.50;99.90
6008;DHT22;3032;49.484;11.112;2024-01-11T00:22:31;-2.50;99.90
6008;DHT22;3032;49.484;11.112;2024-01-11T00:24:57;-2.50;99.90
6008;DHT22;3032;49.484;11.112;2024-01-11T00:27:23;-2.60;99.90
6008;DHT22;3032;49.484;11.112;2024-01-11T00:29:48;-2.50;99.90
6008;DHT22;3032;49.484;11.112;2024-01-11T00:32:14;-2.40;99.90
6008;DHT22;3032;49.484;11.112;2024-01-11T00:34:39;-2.20;99.30
6008;DHT22;3032;49.484;11.112;2024-01-11T00:37:05;-2.20;99.00
6008;DHT22;3032;49.484;11.112;2024-01-11T00:39:30;-2.00;98.80
6008;DHT22;3032;49.484;11.112;2024-01-11T00:41:56;-1.70;98.00
6008;DHT22;3032;49.484;11.112;2024-01-11T00:44:21;-1.50;97.40
6008;DHT22;3032;49.484;11.112;2024-01-11T00:46:47;-1.40;97.10
6008;DHT22;3032;49.484;11.112;2024-01-11T00:49:12;-1.40;96.90
6008;DHT22;3032;49.484;11.112;2024-01-11T00:51:38;-1.40;96.80
6008;DHT22;3032;49.484;11.112;2024-01-11T00:54:03;-1.40;96.60
6008;DHT22;3032;49.484;11.112;2024-01-11T00:56:29;-1.40;96.80
6008;DHT22;3032;49.484;11.112;2024-01-11T00:58:54;-1.40;96.70
6008;DHT22;3032;49.484;11.112;2024-01-11T01:01:20;-1.30;96.60
6008;DHT22;3032;49.484;11.112;2024-01-11T01:03:46;-1.30;96.40
6008;DHT22;3032;49.484;11.112;2024-01-11T01:06:11;-1.40;96.30
6008;DHT22;3032;49.484;11.112;2024-01-11T01:08:37;-1.30;96.20
6008;DHT22;3032;49.484;11.112;2024-01-11T01:11:02;-1.20;95.80
6008;DHT22;3032;49.484;11.112;2024-01-11T01:13:28;-1.30;95.90
6008;DHT22;3032;49.484;11.112;2024-01-11T01:15:55;-1.40;95.60
6008;DHT22;3032;49.484;11.112;2024-01-11T01:18:20;-1.50;95.90
6008;DHT22;3032;49.484;11.112;2024-01-11T01:20:46;-1.50;95.90
6008;DHT22;3032;49.484;11.112;2024-01-11T01:23:11;-1.60;95.70
6008;DHT22;3032;49.484;11.112;2024-01-11T01:25:37;-1.60;96.00
6008;DHT22;3032;49.484;11.112;2024-01-11T01:28:03;-1.60;95.70
6008;DHT22;3032;49.484;11.112;2024-01-11T01:30:28;-1.70;95.60
6008;DHT22;3032;49.484;11.112;2024-01-11T01:32:54;-1.70;95.90
6008;DHT22;3032;49.484;11.112;2024-01-11T01:35:20;-1.70;95.40
6008;DHT22;3032;49.484;11.112;2024-01-11T01:37:45;-1.70;95.30
6008;DHT22;3032;49.484;11.112;2024-01-11T01:40:12;-1.70;95.40
6008;DHT22;3032;49.484;11.112;2024-01-11T01:42:44;-1.80;95.10
6008;DHT22;3032;49.484;11.112;2024-01-11T01:45:10;-1.80;95.10
6008;DHT22;3032;49.484;11.112;2024-01-11T01:47:40;-1.90;94.80
6008;DHT22;3032;49.484;11.112;2024-01-11T01:50:07;-2.00;94.90
6008;DHT22;3032;49.484;11.112;2024-01-11T01:52:33;-2.20;95.20
6008;DHT22;3032;49.484;11.112;2024-01-11T01:55:01;-2.30;95.70
6008;DHT22;3032;49.484;11.112;2024-01-11T01:57:26;-2.40;95.90
6008;DHT22;3032;49.484;11.112;2024-01-11T01:59:52;-2.40;96.10
6008;DHT22;3032;49.484;11.112;2024-01-11T02:02:19;-2.60;96.40
6008;DHT22;3032;49.484;11.112;2024-01-11T02:04:45;-2.40;96.10
6008;DHT22;3032;49.484;11.112;2024-01-11T02:07:11;-2.40;95.80
6008;DHT22;3032;49.484;11.112;2024-01-11T02:09:37;-2.40;95.80
6008;DHT22;3032;49.484;11.112;2024-01-11T02:12:03;-2.50;95.90
6008;DHT22;3032;49.484;11.112;2024-01-11T02:14:28;-2.60;96.10
6008;DHT22;3032;49.484;11.112;2024-01-11T02:16:54;-2.50;96.30
6008;DHT22;3032;49.484;11.112;2024-01-11T02:19:20;-2.50;96.40
6008;DHT22;3032;49.484;11.112;2024-01-11T02:21:48;-2.60;96.60
6008;DHT22;3032;49.484;11.112;2024-01-11T02:24:15;-2.60;96.50
6008;DHT22;3032;49.484;11.112;2024-01-11T02:27:03;-2.60;96.70
6008;DHT22;3032;49.484;11.112;2024-01-11T02:29:29;-2.60;96.60
6008;DHT22;3032;49.484;11.112;2024-01-11T02:31:55;-2.60;96.30
6008;DHT22;3032;49.484;11.112;2024-01-11T02:34:23;-2.70;96.60
6008;DHT22;3032;49.484;11.112;2024-01-11T02:36:49;-2.80;96.80
6008;DHT22;3032;49.484;11.112;2024-01-11T02:39:16;-2.90;97.40
6008;DHT22;3032;49.484;11.112;2024-01-11T02:41:44;-2.80;97.20
6008;DHT22;3032;49.484;11.112;2024-01-11T02:44:10;-2.90;97.30
6008;DHT22;3032;49.484;11.112;2024-01-11T02:46:35;-3.00;97.00
6008;DHT22;3032;49.484;11.112;2024-01-11T02:49:01;-3.00;97.10
6008;DHT22;3032;49.484;11.112;2024-01-11T02:51:26;-3.10;96.90
6008;DHT22;3032;49.484;11.112;2024-01-11T02:53:52;-3.00;96.80
6008;DHT22;3032;49.484;11.112;2024-01-11T02:56:18;-3.00;96.90
6008;DHT22;3032;49.484;11.112;2024-01-11T02:58:43;-3.10;96.80
6008;DHT22;3032;49.484;11.112;2024-01-11T03:01:09;-3.00;96.80
6008;DHT22;3032;49.484;11.112;2024-01-11T03:03:34;-3.00;96.60
6008;DHT22;3032;49.484;11.112;2024-01-11T03:06:01;-3.10;96.60
6008;DHT22;3032;49.484;11.112;2024-01-11T03:08:26;-3.20;97.10
6008;DHT22;3032;49.484;11.112;2024-01-11T03:10:52;-3.20;96.90
6008;DHT22;3032;49.484;11.112;2024-01-11T03:13:17;-3.20;97.10
6008;DHT22;3032;49.484;11.112;2024-01-11T03:15:43;-3.20;97.00
6008;DHT22;3032;49.484;11.112;2024-01-11T03:18:09;-3.20;97.10
6008;DHT22;3032;49.484;11.112;2024-01-11T03:20:35;-3.30;97.10
6008;DHT22;3032;49.484;11.112;2024-01-11T03:23:00;-3.30;96.90
6008;DHT22;3032;49.484;11.112;2024-01-11T03:25:26;-3.40;97.20
6008;DHT22;3032;49.484;11.112;2024-01-11T03:27:51;-3.40;97.00
6008;DHT22;3032;49.484;11.112;2024-01-11T03:30:17;-3.40;97.20
6008;DHT22;3032;49.484;11.112;2024-01-11T03:32:42;-3.50;97.40
6008;DHT22;3032;49.484;11.112;2024-01-11T03:35:08;-3.70;98.30
6008;DHT22;3032;49.484;11.112;2024-01-11T03:37:34;-3.70;98.20
6008;DHT22;3032;49.484;11.112;2024-01-11T03:40:01;-3.60;97.90
6008;DHT22;3032;49.484;11.112;2024-01-11T03:42:27;-3.50;97.60
6008;DHT22;3032;49.484;11.112;2024-01-11T03:44:53;-3.40;97.50
6008;DHT22;3032;49.484;11.112;2024-01-11T03:47:19;-3.40;97.50
6008;DHT22;3032;49.484;11.112;2024-01-11T03:49:44;-3.40;97.10
6008;DHT22;3032;49.484;11.112;2024-01-11T03:52:10;-3.50;97.80
6008;DHT22;3032;49.484;11.112;2024-01-11T03:54:36;-3.50;97.80
6008;DHT22;3032;49.484;11.112;2024-01-11T03:57:02;-3.50;97.20
6008;DHT22;3032;49.484;11.112;2024-01-11T03:59:27;-3.60;97.50
6008;DHT22;3032;49.484;11.112;2024-01-11T04:01:53;-3.70;97.90
6008;DHT22;3032;49.484;11.112;2024-01-11T04:04:19;-3.90;98.50
6008;DHT22;3032;49.484;11.112;2024-01-11T04:06:44;-3.30;98.80
6008;DHT22;3032;49.484;11.112;2024-01-11T04:09:10;-3.90;98.80
6008;DHT22;3032;49.484;11.112;2024-01-11T04:11:36;-3.80;98.10
6008;DHT22;3032;49.484;11.112;2024-01-11T04:14:01;-3.80;98.40
6008;DHT22;3032;49.484;11.112;2024-01-11T04:16:27;-3.80;99.00
6008;DHT22;3032;49.484;11.112;2024-01-11T04:18:53;-4.00;99.20
6008;DHT22;3032;49.484;11.112;2024-01-11T04:21:26;-3.70;99.30
6008;DHT22;3032;49.484;11.112;2024-01-11T04:23:56;-4.00;99.00
6008;DHT22;3032;49.484;11.112;2024-01-11T04:26:22;-3.90;98.90
6008;DHT22;3032;49.484;11.112;2024-01-11T04:28:48;-3.80;98.60
6008;DHT22;3032;49.484;11.112;2024-01-11T04:31:14;-3.90;99.00
6008;DHT22;3032;49.484;11.112;2024-01-11T04:33:41;-4.00;98.80
6008;DHT22;3032;49.484;11.112;2024-01-11T04:36:08;-4.00;99.30
6008;DHT22;3032;49.484;11.112;2024-01-11T04:38:34;-3.50;99.30
6008;DHT22;3032;49.484;11.112;2024-01-11T04:40:59;-3.90;98.80
6008;DHT22;3032;49.484;11.112;2024-01-11T04:43:25;-3.70;99.00
6008;DHT22;3032;49.484;11.112;2024-01-11T04:45:50;-4.20;99.10
6008;DHT22;3032;49.484;11.112;2024-01-11T04:48:16;-3.70;99.30
6008;DHT22;3032;49.484;11.112;2024-01-11T04:50:41;-3.50;99.30
6008;DHT22;3032;49.484;11.112;2024-01-11T04:53:07;-4.30;98.40
6008;DHT22;3032;49.484;11.112;2024-01-11T04:55:33;-3.90;99.90
6008;DHT22;3032;49.484;11.112;2024-01-11T04:57:58;-3.80;99.90
6008;DHT22;3032;49.484;11.112;2024-01-11T05:00:24;-3.90;99.80
6008;DHT22;3032;49.484;11.112;2024-01-11T05:02:49;-3.80;99.50
6008;DHT22;3032;49.484;11.112;2024-01-11T05:05:15;-4.10;99.20
6008;DHT22;3032;49.484;11.112;2024-01-11T05:07:41;-4.10;99.00
6008;DHT22;3032;49.484;11.112;2024-01-11T05:10:07;-3.70;99.80
6008;DHT22;3032;49.484;11.112;2024-01-11T05:12:33;-4.10;99.20
6008;DHT22;3032;49.484;11.112;2024-01-11T05:14:58;-4.20;99.10
6008;DHT22;3032;49.484;11.112;2024-01-11T05:17:25;-3.80;99.30
6008;DHT22;3032;49.484;11.112;2024-01-11T05:19:51;-3.90;99.60
6008;DHT22;3032;49.484;11.112;2024-01-11T05:22:17;-3.50;99.60
6008;DHT22;3032;49.484;11.112;2024-01-11T05:24:43;-3.90;99.20
6008;DHT22;3032;49.484;11.112;2024-01-11T05:27:08;-3.80;98.90
6008;DHT22;3032;49.484;11.112;2024-01-11T05:29:34;-3.60;99.20
6008;DHT22;3032;49.484;11.112;2024-01-11T05:31:59;-3.80;99.10
6008;DHT22;3032;49.484;11.112;2024-01-11T05:34:25;-4.10;99.00
6008;DHT22;3032;49.484;11.112;2024-01-11T05:36:50;-4.00;99.50
6008;DHT22;3032;49.484;11.112;2024-01-11T05:39:16;-3.60;99.90
6008;DHT22;3032;49.484;11.112;2024-01-11T05:41:45;-3.80;99.90
6008;DHT22;3032;49.484;11.112;2024-01-11T05:44:10;-4.30;99.90
6008;DHT22;3032;49.484;11.112;2024-01-11T05:46:36;-4.10;99.90
6008;DHT22;3032;49.484;11.112;2024-01-11T05:49:01;-3.80;99.90
6008;DHT22;3032;49.484;11.112;2024-01-11T05:51:27;-3.90;99.80
6008;DHT22;3032;49.484;11.112;2024-01-11T05:53:53;-3.60;99.50
6008;DHT22;3032;49.484;11.112;2024-01-11T05:56:19;-3.90;99.90
6008;DHT22;3032;49.484;11.112;2024-01-11T05:58:46;-3.80;99.90
6008;DHT22;3032;49.484;11.112;2024-01-11T06:01:11;-4.40;99.90
6008;DHT22;3032;49.484;11.112;2024-01-11T06:03:37;-4.40;99.90
6008;DHT22;3032;49.484;11.112;2024-01-11T06:06:05;-4.40;99.90
6008;DHT22;3032;49.484;11.112;2024-01-11T06:08:31;-4.40;99.90
6008;DHT22;3032;49.484;11.112;2024-01-11T06:10:57;-4.30;99.90
6008;DHT22;3032;49.484;11.112;2024-01-11T06:13:23;-3.90;99.90
6008;DHT22;3032;49.484;11.112;2024-01-11T06:15:49;-3.90;99.90
6008;DHT22;3032;49.484;11.112;2024-01-11T06:18:15;-4.70;99.90
6008;DHT22;3032;49.484;11.112;2024-01-11T06:20:41;-4.40;99.90
6008;DHT22;3032;49.484;11.112;2024-01-11T06:23:06;-4.70;99.90
6008;DHT22;3032;49.484;11.112;2024-01-11T06:25:32;-4.20;99.90
6008;DHT22;3032;49.484;11.112;2024-01-11T06:27:58;-4.70;99.90
6008;DHT22;3032;49.484;11.112;2024-01-11T06:30:23;-4.70;99.90
6008;DHT22;3032;49.484;11.112;2024-01-11T06:32:49;-4.70;99.90
6008;DHT22;3032;49.484;11.112;2024-01-11T06:35:14;-4.20;99.90
6008;DHT22;3032;49.484;11.112;2024-01-11T06:37:40;-4.70;99.90
6008;DHT22;3032;49.484;11.112;2024-01-11T06:40:06;-4.00;99.90
6008;DHT22;3032;49.484;11.112;2024-01-11T06:42:33;-4.60;99.90
6008;DHT22;3032;49.484;11.112;2024-01-11T06:44:59;-4.10;99.90
6008;DHT22;3032;49.484;11.112;2024-01-11T06:47:24;-4.60;99.90
6008;DHT22;3032;49.484;11.112;2024-01-11T06:49:50;-4.70;99.90
6008;DHT22;3032;49.484;11.112;2024-01-11T06:52:15;-4.70;99.90
6008;DHT22;3032;49.484;11.112;2024-01-11T06:54:41;-4.60;99.80
6008;DHT22;3032;49.484;11.112;2024-01-11T06:57:07;-4.50;99.30
6008;DHT22;3032;49.484;11.112;2024-01-11T06:59:33;-4.50;99.10
6008;DHT22;3032;49.484;11.112;2024-01-11T07:01:58;-4.40;99.40
6008;DHT22;3032;49.484;11.112;2024-01-11T07:04:24;-4.50;99.00
6008;DHT22;3032;49.484;11.112;2024-01-11T07:06:49;-4.50;99.30
6008;DHT22;3032;49.484;11.112;2024-01-11T07:09:15;-4.40;98.80
6008;DHT22;3032;49.484;11.112;2024-01-11T07:11:42;-4.00;98.90
6008;DHT22;3032;49.484;11.112;2024-01-11T07:14:08;-4.50;99.50
6008;DHT22;3032;49.484;11.112;2024-01-11T07:16:34;-4.40;99.60
6008;DHT22;3032;49.484;11.112;2024-01-11T07:18:59;-4.20;99.70
6008;DHT22;3032;49.484;11.112;2024-01-11T07:21:25;-4.20;99.90
6008;DHT22;3032;49.484;11.112;2024-01-11T07:23:55;-4.50;99.90
6008;DHT22;3032;49.484;11.112;2024-01-11T07:26:22;-4.40;99.90
6008;DHT22;3032;49.484;11.112;2024-01-11T07:28:49;-4.30;99.90
6008;DHT22;3032;49.484;11.112;2024-01-11T07:31:14;-3.80;99.90
6008;DHT22;3032;49.484;11.112;2024-01-11T07:33:40;-3.70;99.90
6008;DHT22;3032;49.484;11.112;2024-01-11T07:36:06;-3.60;99.90
6008;DHT22;3032;49.484;11.112;2024-01-11T07:38:32;-4.00;99.50
6008;DHT22;3032;49.484;11.112;2024-01-11T07:40:57;-3.90;99.10
6008;DHT22;3032;49.484;11.112;2024-01-11T07:43:23;-3.40;99.90
6008;DHT22;3032;49.484;11.112;2024-01-11T07:45:48;-3.90;99.50
6008;DHT22;3032;49.484;11.112;2024-01-11T07:48:14;-3.80;98.80
6008;DHT22;3032;49.484;11.112;2024-01-11T07:50:40;-3.80;98.70
6008;DHT22;3032;49.484;11.112;2024-01-11T07:53:05;-3.60;98.70
6008;DHT22;3032;49.484;11.112;2024-01-11T07:55:31;-3.70;98.60
6008;DHT22;3032;49.484;11.112;2024-01-11T07:57:57;-3.60;98.40
6008;DHT22;3032;49.484;11.112;2024-01-11T08:00:22;-3.50;98.40
6008;DHT22;3032;49.484;11.112;2024-01-11T08:02:49;-3.30;98.90
6008;DHT22;3032;49.484;11.112;2024-01-11T08:05:14;-3.20;98.10
6008;DHT22;3032;49.484;11.112;2024-01-11T08:07:40;-3.40;97.70
6008;DHT22;3032;49.484;11.112;2024-01-11T08:10:08;-3.50;98.60
6008;DHT22;3032;49.484;11.112;2024-01-11T08:12:34;-3.20;98.60
6008;DHT22;3032;49.484;11.112;2024-01-11T08:15:00;-3.10;98.60
6008;DHT22;3032;49.484;11.112;2024-01-11T08:17:26;-3.10;98.50
6008;DHT22;3032;49.484;11.112;2024-01-11T08:19:51;-2.60;98.70
6008;DHT22;3032;49.484;11.112;2024-01-11T08:22:17;-1.60;99.90
6008;DHT22;3032;49.484;11.112;2024-01-11T08:24:42;-0.50;99.90
6008;DHT22;3032;49.484;11.112;2024-01-11T08:27:08;1.00;99.70
6008;DHT22;3032;49.484;11.112;2024-01-11T08:29:34;2.60;95.90
6008;DHT22;3032;49.484;11.112;2024-01-11T08:32:00;3.90;92.30
6008;DHT22;3032;49.484;11.112;2024-01-11T08:34:29;4.80;83.30
6008;DHT22;3032;49.484;11.112;2024-01-11T08:36:55;5.90;82.70
6008;DHT22;3032;49.484;11.112;2024-01-11T08:39:20;6.60;76.20
6008;DHT22;3032;49.484;11.112;2024-01-11T08:41:47;6.80;72.30
6008;DHT22;3032;49.484;11.112;2024-01-11T08:44:13;7.60;68.80
6008;DHT22;3032;49.484;11.112;2024-01-11T08:46:39;7.90;66.40
6008;DHT22;3032;49.484;11.112;2024-01-11T08:49:04;8.60;65.50
6008;DHT22;3032;49.484;11.112;2024-01-11T08:51:30;9.10;63.30
6008;DHT22;3032;49.484;11.112;2024-01-11T08:53:57;9.70;61.10
6008;DHT22;3032;49.484;11.112;2024-01-11T08:56:23;10.00;58.80
6008;DHT22;3032;49.484;11.112;2024-01-11T08:58:48;10.20;57.30
6008;DHT22;3032;49.484;11.112;2024-01-11T09:01:15;10.20;57.00
6008;DHT22;3032;49.484;11.112;2024-01-11T09:03:40;10.40;55.80
6008;DHT22;3032;49.484;11.112;2024-01-11T09:06:06;10.40;54.70
6008;DHT22;3032;49.484;11.112;2024-01-11T09:08:32;10.60;54.10
6008;DHT22;3032;49.484;11.112;2024-01-11T09:10:58;11.10;54.10
6008;DHT22;3032;49.484;11.112;2024-01-11T09:13:24;11.60;53.50
6008;DHT22;3032;49.484;11.112;2024-01-11T09:15:52;11.40;51.90
6008;DHT22;3032;49.484;11.112;2024-01-11T09:18:18;11.80;51.90
6008;DHT22;3032;49.484;11.112;2024-01-11T09:20:43;11.90;51.20
6008;DHT22;3032;49.484;11.112;2024-01-11T09:23:09;12.30;50.40
6008;DHT22;3032;49.484;11.112;2024-01-11T09:25:35;12.60;49.20
6008;DHT22;3032;49.484;11.112;2024-01-11T09:28:00;12.60;49.10
6008;DHT22;3032;49.484;11.112;2024-01-11T09:30:26;11.70;49.90
6008;DHT22;3032;49.484;11.112;2024-01-11T09:32:52;12.00;49.40
6008;DHT22;3032;49.484;11.112;2024-01-11T09:35:18;12.20;49.40
6008;DHT22;3032;49.484;11.112;2024-01-11T09:37:43;12.20;49.10
6008;DHT22;3032;49.484;11.112;2024-01-11T09:40:11;12.40;49.70
6008;DHT22;3032;49.484;11.112;2024-01-11T09:42:37;12.40;48.10
6008;DHT22;3032;49.484;11.112;2024-01-11T09:45:08;12.30;48.60
6008;DHT22;3032;49.484;11.112;2024-01-11T09:47:36;12.60;49.40
6008;DHT22;3032;49.484;11.112;2024-01-11T09:50:08;13.10;49.00
6008;DHT22;3032;49.484;11.112;2024-01-11T09:52:34;13.10;48.20
6008;DHT22;3032;49.484;11.112;2024-01-11T09:55:00;13.30;47.90
6008;DHT22;3032;49.484;11.112;2024-01-11T09:57:30;13.30;47.40
6008;DHT22;3032;49.484;11.112;2024-01-11T09:59:57;13.60;47.20
6008;DHT22;3032;49.484;11.112;2024-01-11T10:02:23;13.10;46.20
6008;DHT22;3032;49.484;11.112;2024-01-11T10:04:50;13.00;47.20
6008;DHT22;3032;49.484;11.112;2024-01-11T10:07:19;13.20;47.20
6008;DHT22;3032;49.484;11.112;2024-01-11T10:09:46;13.30;46.50
6008;DHT22;3032;49.484;11.112;2024-01-11T10:12:12;13.00;46.20
6008;DHT22;3032;49.484;11.112;2024-01-11T10:14:37;12.50;47.00
6008;DHT22;3032;49.484;11.112;2024-01-11T10:17:03;12.50;47.70
6008;DHT22;3032;49.484;11.112;2024-01-11T10:19:30;12.50;47.40
6008;DHT22;3032;49.484;11.112;2024-01-11T10:21:57;12.80;47.60
6008;DHT22;3032;49.484;11.112;2024-01-11T10:24:24;13.00;47.70
6008;DHT22;3032;49.484;11.112;2024-01-11T10:26:58;13.40;47.50
6008;DHT22;3032;49.484;11.112;2024-01-11T10:29:30;13.10;47.10
6008;DHT22;3032;49.484;11.112;2024-01-11T10:31:56;13.00;47.30
6008;DHT22;3032;49.484;11.112;2024-01-11T10:34:23;13.50;47.20
6008;DHT22;3032;49.484;11.112;2024-01-11T10:36:50;13.80;46.80
6008;DHT22;3032;49.484;11.112;2024-01-11T10:39:16;13.80;46.20
6008;DHT22;3032;49.484;11.112;2024-01-11T10:41:49;13.80;45.10
6008;DHT22;3032;49.484;11.112;2024-01-11T10:44:20;13.70;44.90
6008;DHT22;3032;49.484;11.112;2024-01-11T10:46:49;13.60;45.50
6008;DHT22;3032;49.484;11.112;2024-01-11T10:49:17;13.20;45.20
6008;DHT22;3032;49.484;11.112;2024-01-11T10:51:56;12.40;46.70
6008;DHT22;3032;49.484;11.112;2024-01-11T10:54:24;12.00;46.60
6008;DHT22;3032;49.484;11.112;2024-01-11T10:56:50;12.00;47.60
6008;DHT22;3032;49.484;11.112;2024-01-11T10:59:17;12.10;47.20
6008;DHT22;3032;49.484;11.112;2024-01-11T11:01:44;12.30;47.10
6008;DHT22;3032;49.484;11.112;2024-01-11T11:04:10;12.70;47.80
6008;DHT22;3032;49.484;11.112;2024-01-11T11:06:37;12.90;47.50
6008;DHT22;3032;49.484;11.112;2024-01-11T11:09:04;13.00;46.40
6008;DHT22;3032;49.484;11.112;2024-01-11T11:11:31;12.70;46.50
6008;DHT22;3032;49.484;11.112;2024-01-11T11:13:59;12.40;45.70
6008;DHT22;3032;49.484;11.112;2024-01-11T11:16:26;12.00;46.20
6008;DHT22;3032;49.484;11.112;2024-01-11T11:18:55;12.20;47.20
6008;DHT22;3032;49.484;11.112;2024-01-11T11:21:21;12.10;46.80
6008;DHT22;3032;49.484;11.112;2024-01-11T11:23:47;11.70;47.90
6008;DHT22;3032;49.484;11.112;2024-01-11T11:26:18;11.70;48.60
6008;DHT22;3032;49.484;11.112;2024-01-11T11:28:44;12.20;48.90
6008;DHT22;3032;49.484;11.112;2024-01-11T11:31:13;11.20;47.80
6008;DHT22;3032;49.484;11.112;2024-01-11T11:33:38;11.00;48.80
6008;DHT22;3032;49.484;11.112;2024-01-11T11:36:05;11.00;48.80
6008;DHT22;3032;49.484;11.112;2024-01-11T11:38:37;11.00;48.30
6008;DHT22;3032;49.484;11.112;2024-01-11T11:41:03;11.00;48.20
6008;DHT22;3032;49.484;11.112;2024-01-11T11:43:29;10.30;49.10
6008;DHT22;3032;49.484;11.112;2024-01-11T11:45:57;10.40;49.40
6008;DHT22;3032;49.484;11.112;2024-01-11T11:51:21;10.50;48.80
6008;DHT22;3032;49.484;11.112;2024-01-11T11:53:48;10.20;49.20
6008;DHT22;3032;49.484;11.112;2024-01-11T11:56:16;9.00;50.20
6008;DHT22;3032;49.484;11.112;2024-01-11T11:58:43;8.60;51.40
6008;DHT22;3032;49.484;11.112;2024-01-11T12:01:09;8.70;52.50
6008;DHT22;3032;49.484;11.112;2024-01-11T12:03:41;8.80;52.00
6008;DHT22;3032;49.484;11.112;2024-01-11T12:06:10;9.00;51.90
6008;DHT22;3032;49.484;11.112;2024-01-11T12:08:36;9.00;52.00
6008;DHT22;3032;49.484;11.112;2024-01-11T12:11:02;8.80;52.20
6008;DHT22;3032;49.484;11.112;2024-01-11T12:13:29;8.60;52.40
6008;DHT22;3032;49.484;11.112;2024-01-11T12:15:56;8.60;52.50
6008;DHT22;3032;49.484;11.112;2024-01-11T12:18:22;8.20;52.50
6008;DHT22;3032;49.484;11.112;2024-01-11T12:20:47;8.30;53.30
6008;DHT22;3032;49.484;11.112;2024-01-11T12:23:13;8.10;52.70
6008;DHT22;3032;49.484;11.112;2024-01-11T12:25:41;8.20;53.10
6008;DHT22;3032;49.484;11.112;2024-01-11T12:28:07;7.90;53.30
6008;DHT22;3032;49.484;11.112;2024-01-11T12:30:33;7.70;53.80
6008;DHT22;3032;49.484;11.112;2024-01-11T12:33:00;7.30;54.10
6008;DHT22;3032;49.484;11.112;2024-01-11T12:35:32;7.10;54.50
6008;DHT22;3032;49.484;11.112;2024-01-11T12:38:04;6.60;55.00
6008;DHT22;3032;49.484;11.112;2024-01-11T12:40:33;6.70;56.10
6008;DHT22;3032;49.484;11.112;2024-01-11T12:43:00;6.60;56.20
6008;DHT22;3032;49.484;11.112;2024-01-11T12:45:26;6.40;56.50
6008;DHT22;3032;49.484;11.112;2024-01-11T12:47:52;6.10;56.80
6008;DHT22;3032;49.484;11.112;2024-01-11T12:50:20;5.90;57.20
6008;DHT22;3032;49.484;11.112;2024-01-11T12:52:46;5.80;57.90
6008;DHT22;3032;49.484;11.112;2024-01-11T12:55:19;5.70;57.90
6008;DHT22;3032;49.484;11.112;2024-01-11T12:57:45;5.70;58.80
6008;DHT22;3032;49.484;11.112;2024-01-11T13:00:11;6.10;58.70
6008;DHT22;3032;49.484;11.112;2024-01-11T13:02:37;6.50;57.70
6008;DHT22;3032;49.484;11.112;2024-01-11T13:05:03;6.40;57.10
6008;DHT22;3032;49.484;11.112;2024-01-11T13:07:30;6.20;57.20
6008;DHT22;3032;49.484;11.112;2024-01-11T13:09:56;6.30;57.70
6008;DHT22;3032;49.484;11.112;2024-01-11T13:12:22;6.30;58.00
6008;DHT22;3032;49.484;11.112;2024-01-11T13:14:48;6.30;57.50
6008;DHT22;3032;49.484;11.112;2024-01-11T13:17:14;6.20;57.90
6008;DHT22;3032;49.484;11.112;2024-01-11T13:19:39;6.10;58.40
6008;DHT22;3032;49.484;11.112;2024-01-11T13:22:05;5.90;58.50
6008;DHT22;3032;49.484;11.112;2024-01-11T13:24:31;5.70;58.80
6008;DHT22;3032;49.484;11.112;2024-01-11T13:26:56;5.40;59.50
6008;DHT22;3032;49.484;11.112;2024-01-11T13:29:22;5.10;60.40
6008;DHT22;3032;49.484;11.112;2024-01-11T13:31:47;5.10;60.30
6008;DHT22;3032;49.484;11.112;2024-01-11T13:34:13;4.80;61.00
6008;DHT22;3032;49.484;11.112;2024-01-11T13:36:39;4.50;61.80
6008;DHT22;3032;49.484;11.112;2024-01-11T13:39:04;4.50;62.10
6008;DHT22;3032;49.484;11.112;2024-01-11T13:41:33;4.50;63.60
6008;DHT22;3032;49.484;11.112;2024-01-11T13:43:59;4.70;62.50
6008;DHT22;3032;49.484;11.112;2024-01-11T13:46:24;4.90;62.70
6008;DHT22;3032;49.484;11.112;2024-01-11T13:48:50;5.00;62.60
6008;DHT22;3032;49.484;11.112;2024-01-11T13:51:15;5.10;62.30
6008;DHT22;3032;49.484;11.112;2024-01-11T13:53:41;5.40;62.20
6008;DHT22;3032;49.484;11.112;2024-01-11T13:56:07;5.80;61.40
6008;DHT22;3032;49.484;11.112;2024-01-11T13:58:32;6.00;60.80
6008;DHT22;3032;49.484;11.112;2024-01-11T14:00:58;5.60;60.80
6008;DHT22;3032;49.484;11.112;2024-01-11T14:03:23;5.60;61.80
6008;DHT22;3032;49.484;11.112;2024-01-11T14:05:49;5.70;62.00
6008;DHT22;3032;49.484;11.112;2024-01-11T14:08:15;5.60;61.70
6008;DHT22;3032;49.484;11.112;2024-01-11T14:10:41;5.80;62.00
6008;DHT22;3032;49.484;11.112;2024-01-11T14:13:06;5.80;61.40
6008;DHT22;3032;49.484;11.112;2024-01-11T14:15:32;5.80;61.40
6008;DHT22;3032;49.484;11.112;2024-01-11T14:17:57;6.00;60.90
6008;DHT22;3032;49.484;11.112;2024-01-11T14:20:23;5.80;60.80
6008;DHT22;3032;49.484;11.112;2024-01-11T14:22:49;5.30;61.00
6008;DHT22;3032;49.484;11.112;2024-01-11T14:25:16;5.00;62.40
6008;DHT22;3032;49.484;11.112;2024-01-11T14:27:41;4.80;63.30
6008;DHT22;3032;49.484;11.112;2024-01-11T14:30:07;4.70;63.60
6008;DHT22;3032;49.484;11.112;2024-01-11T14:32:34;4.70;64.10
6008;DHT22;3032;49.484;11.112;2024-01-11T14:35:00;4.70;64.10
6008;DHT22;3032;49.484;11.112;2024-01-11T14:37:34;4.50;64.90
6008;DHT22;3032;49.484;11.112;2024-01-11T14:40:00;4.50;64.50
6008;DHT22;3032;49.484;11.112;2024-01-11T14:42:26;4.50;64.70
6008;DHT22;3032;49.484;11.112;2024-01-11T14:44:52;4.50;65.10
6008;DHT22;3032;49.484;11.112;2024-01-11T14:47:18;4.50;65.10
6008;DHT22;3032;49.484;11.112;2024-01-11T14:49:45;4.50;65.10
6008;DHT22;3032;49.484;11.112;2024-01-11T14:52:10;4.60;65.20
6008;DHT22;3032;49.484;11.112;2024-01-11T14:54:36;4.40;64.90
6008;DHT22;3032;49.484;11.112;2024-01-11T14:57:01;4.20;65.80
6008;DHT22;3032;49.484;11.112;2024-01-11T14:59:27;4.30;66.40
6008;DHT22;3032;49.484;11.112;2024-01-11T15:01:53;4.10;66.50
6008;DHT22;3032;49.484;11.112;2024-01-11T15:04:18;4.10;66.50
6008;DHT22;3032;49.484;11.112;2024-01-11T15:06:44;4.00;66.50
6008;DHT22;3032;49.484;11.112;2024-01-11T15:09:10;4.10;67.30
6008;DHT22;3032;49.484;11.112;2024-01-11T15:11:38;4.00;66.80
6008;DHT22;3032;49.484;11.112;2024-01-11T15:14:05;4.00;66.70
6008;DHT22;3032;49.484;11.112;2024-01-11T15:16:31;3.90;66.70
6008;DHT22;3032;49.484;11.112;2024-01-11T15:18:56;3.60;66.90
6008;DHT22;3032;49.484;11.112;2024-01-11T15:21:22;3.50;67.60
6008;DHT22;3032;49.484;11.112;2024-01-11T15:23:47;3.60;67.70
6008;DHT22;3032;49.484;11.112;2024-01-11T15:26:13;3.70;67.80
6008;DHT22;3032;49.484;11.112;2024-01-11T15:28:39;3.80;67.60
6008;DHT22;3032;49.484;11.112;2024-01-11T15:31:05;3.60;67.50
6008;DHT22;3032;49.484;11.112;2024-01-11T15:33:31;3.50;67.80
6008;DHT22;3032;49.484;11.112;2024-01-11T15:35:56;3.40;68.30
6008;DHT22;3032;49.484;11.112;2024-01-11T15:38:22;3.50;68.90
6008;DHT22;3032;49.484;11.112;2024-01-11T15:40:47;3.50;69.00
6008;DHT22;3032;49.484;11.112;2024-01-11T15:43:13;3.50;68.90
6008;DHT22;3032;49.484;11.112;2024-01-11T15:45:39;3.40;69.10